Wilson, WY

9:38 PM MDT on August 29, 2014 (GMT -0600)
MesoWest PHILLIPS BENCH WY US SNOTEL | Change Station
CLOSE
Current Station
Personal Weather Station
Location: Wilson, WY
Elevation: 8200 ft
Nearby Weather Stations

Elev 8200 ft 43.52 °N, 110.91 °W | Updated 1 hour ago

Clear
Clear
56.0 °F
Feels Like 56.0 °F
N
-
Wind Variable Wind from North

Today
High -- | Low -- °F
--% Chance of Precip.
Yesterday
High -- | Low -- °F
Precip. -- in
6:44 AM 8:04 PM
Waxing Crescent, 18% visible
Pressure 30.12 in
Visibility 10.0 miles
Clouds Clear
Dew Point Not available.
Humidity Not available.
Rainfall 0.00 in
Snow Depth 0 in
UV 0 out of 12
Pollen 8.80 out of 12
Air Quality Not available.
Flu Activity Not available.
METAR KJAC 300335Z AUTO 00000KT 10SM CLR 13/05 A3012 RMK AO1 LTG DSNT SW

More Conditions Fewer Conditions

Pressure 30.12 in
Visibility 10.0 miles
Clouds Clear
Dew Point Not available.
Humidity Not available.
Rainfall 0.00 in
Snow Depth 0 in
UV 0 out of 12
Pollen 8.80 out of 12
Air Quality Not available.
Flu Activity Not available.
METAR KJAC 300335Z AUTO 00000KT 10SM CLR 13/05 A3012 RMK AO1 LTG DSNT SW

More Conditions Fewer Conditions

10-Day Weather Forecast

Almanac

Astronomy

Aug. 29, 2014 Rise Set
Actual Time 6:44 AM MDT 8:04 PM MDT
Civil Twilight 6:14 AM MDT 8:33 PM MDT
Nautical Twilight 5:38 AM MDT 9:09 PM MDT
Astronomical Twilight 5:00 AM MDT 9:46 PM MDT
Moon 10:45 AM MDT (8/29) 9:54 PM MDT (8/29)
Length of Visible Light 14h 19m
Length of Day
13h 19m
Tomorrow will be 2m 51s shorter.
Waxing Crescent, 18% of the Moon is Illuminated
Today
Waxing Crescent
Sep 2
First Quarter
Sep 8
Full
Sep 15
Last Quarter
Sep 24
New

Today's Extremes

State Highs State Lows

Community

WunderPhotos

Upload Photos

1,748,432 photos uploaded!

Nearby

Snow Depth

Station Depth Elevation
Phillips Bench 0 in 8200 ft
Base Camp 0 in 7030 ft
Gros Ventre Summit 0 in 8750 ft
Blind Bull Summit 1 in 8900 ft
Snake River Station 0 in 6920 ft

Earthquake Activity

City Distance Mag. Time & Date
No recent earthquake activity has been reported nearby.
Minimum magnitude displayed is 2.5.

Coastal Water Temperatures

Place Temperature
No Stations Reporting

Nearby Weather Stations